sensor_id;sensor_type;location;lat;lon;timestamp;temperature;humidity
48579;DHT22;34357;51.948;6.132;2023-03-31T00:00:27;10.50;88.00
48579;DHT22;34357;51.948;6.132;2023-03-31T00:02:53;10.50;88.00
48579;DHT22;34357;51.948;6.132;2023-03-31T00:05:21;10.50;88.00
48579;DHT22;34357;51.948;6.132;2023-03-31T00:07:56;10.50;88.10
48579;DHT22;34357;51.948;6.132;2023-03-31T00:10:30;10.50;88.10
48579;DHT22;34357;51.948;6.132;2023-03-31T00:13:00;10.50;88.30
48579;DHT22;34357;51.948;6.132;2023-03-31T00:15:26;10.40;88.40
48579;DHT22;34357;51.948;6.132;2023-03-31T00:17:52;10.40;88.60
48579;DHT22;34357;51.948;6.132;2023-03-31T00:20:18;10.40;88.70
48579;DHT22;34357;51.948;6.132;2023-03-31T00:22:44;10.40;88.60
48579;DHT22;34357;51.948;6.132;2023-03-31T00:25:14;10.40;88.60
48579;DHT22;34357;51.948;6.132;2023-03-31T00:27:44;10.40;88.60
48579;DHT22;34357;51.948;6.132;2023-03-31T00:30:14;10.40;88.70
48579;DHT22;34357;51.948;6.132;2023-03-31T00:32:40;10.40;88.80
48579;DHT22;34357;51.948;6.132;2023-03-31T00:35:06;10.50;88.50
48579;DHT22;34357;51.948;6.132;2023-03-31T00:37:33;10.50;88.50
48579;DHT22;34357;51.948;6.132;2023-03-31T00:39:59;10.60;88.50
48579;DHT22;34357;51.948;6.132;2023-03-31T00:42:25;10.60;88.50
48579;DHT22;34357;51.948;6.132;2023-03-31T00:47:51;10.60;88.40
48579;DHT22;34357;51.948;6.132;2023-03-31T00:50:21;10.60;88.40
48579;DHT22;34357;51.948;6.132;2023-03-31T00:52:53;10.60;88.40
48579;DHT22;34357;51.948;6.132;2023-03-31T00:55:27;10.60;88.40
48579;DHT22;34357;51.948;6.132;2023-03-31T00:57:55;10.70;88.50
48579;DHT22;34357;51.948;6.132;2023-03-31T01:00:22;10.70;88.50
48579;DHT22;34357;51.948;6.132;2023-03-31T01:02:52;10.70;88.50
48579;DHT22;34357;51.948;6.132;2023-03-31T01:05:45;10.70;88.50
48579;DHT22;34357;51.948;6.132;2023-03-31T01:08:13;10.70;88.40
48579;DHT22;34357;51.948;6.132;2023-03-31T01:10:45;10.80;88.40
48579;DHT22;34357;51.948;6.132;2023-03-31T01:13:13;10.70;88.70
48579;DHT22;34357;51.948;6.132;2023-03-31T01:15:41;10.70;89.30
48579;DHT22;34357;51.948;6.132;2023-03-31T01:18:08;10.60;90.00
48579;DHT22;34357;51.948;6.132;2023-03-31T01:23:24;10.50;91.10
48579;DHT22;34357;51.948;6.132;2023-03-31T01:40:38;10.20;92.50
48579;DHT22;34357;51.948;6.132;2023-03-31T01:43:08;10.20;92.50
48579;DHT22;34357;51.948;6.132;2023-03-31T01:45:50;10.20;92.50
48579;DHT22;34357;51.948;6.132;2023-03-31T01:50:57;10.10;92.50
48579;DHT22;34357;51.948;6.132;2023-03-31T01:53:28;10.10;92.50
48579;DHT22;34357;51.948;6.132;2023-03-31T01:56:07;10.10;92.40
48579;DHT22;34357;51.948;6.132;2023-03-31T01:58:45;10.10;92.50
48579;DHT22;34357;51.948;6.132;2023-03-31T02:01:36;10.10;92.60
48579;DHT22;34357;51.948;6.132;2023-03-31T02:06:35;10.20;92.70
48579;DHT22;34357;51.948;6.132;2023-03-31T02:09:09;10.20;92.70
48579;DHT22;34357;51.948;6.132;2023-03-31T02:11:38;10.30;92.70
48579;DHT22;34357;51.948;6.132;2023-03-31T02:14:09;10.20;92.70
48579;DHT22;34357;51.948;6.132;2023-03-31T02:16:39;10.20;92.70
48579;DHT22;34357;51.948;6.132;2023-03-31T02:19:12;10.20;92.70
48579;DHT22;34357;51.948;6.132;2023-03-31T02:21:46;10.30;92.80
48579;DHT22;34357;51.948;6.132;2023-03-31T02:24:16;10.20;92.80
48579;DHT22;34357;51.948;6.132;2023-03-31T02:26:56;10.20;92.90
48579;DHT22;34357;51.948;6.132;2023-03-31T02:29:24;10.30;92.90
48579;DHT22;34357;51.948;6.132;2023-03-31T02:32:03;10.30;93.00
48579;DHT22;34357;51.948;6.132;2023-03-31T02:34:34;10.40;92.70
48579;DHT22;34357;51.948;6.132;2023-03-31T02:37:00;10.40;92.60
48579;DHT22;34357;51.948;6.132;2023-03-31T02:39:30;10.40;92.40
48579;DHT22;34357;51.948;6.132;2023-03-31T02:41:57;10.50;92.10
48579;DHT22;34357;51.948;6.132;2023-03-31T02:44:23;10.50;92.00
48579;DHT22;34357;51.948;6.132;2023-03-31T02:46:51;10.50;92.00
48579;DHT22;34357;51.948;6.132;2023-03-31T02:49:17;10.50;91.90
48579;DHT22;34357;51.948;6.132;2023-03-31T02:52:33;10.40;92.00
48579;DHT22;34357;51.948;6.132;2023-03-31T03:09:02;10.40;91.80
48579;DHT22;34357;51.948;6.132;2023-03-31T03:17:26;10.40;92.10
48579;DHT22;34357;51.948;6.132;2023-03-31T03:19:56;10.30;92.30
48579;DHT22;34357;51.948;6.132;2023-03-31T03:22:23;10.40;92.40
48579;DHT22;34357;51.948;6.132;2023-03-31T03:24:50;10.40;92.50
48579;DHT22;34357;51.948;6.132;2023-03-31T03:27:17;10.30;92.60
48579;DHT22;34357;51.948;6.132;2023-03-31T03:29:43;10.40;92.70
48579;DHT22;34357;51.948;6.132;2023-03-31T03:32:09;10.30;92.70
48579;DHT22;34357;51.948;6.132;2023-03-31T03:34:35;10.30;92.70
48579;DHT22;34357;51.948;6.132;2023-03-31T03:37:01;10.40;92.60
48579;DHT22;34357;51.948;6.132;2023-03-31T03:39:27;10.30;92.60
48579;DHT22;34357;51.948;6.132;2023-03-31T03:41:53;10.30;92.70
48579;DHT22;34357;51.948;6.132;2023-03-31T03:44:18;10.30;92.80
48579;DHT22;34357;51.948;6.132;2023-03-31T03:46:44;10.30;92.90
48579;DHT22;34357;51.948;6.132;2023-03-31T03:49:10;10.20;93.00
48579;DHT22;34357;51.948;6.132;2023-03-31T03:51:36;10.20;93.00
48579;DHT22;34357;51.948;6.132;2023-03-31T03:54:01;10.20;93.20
48579;DHT22;34357;51.948;6.132;2023-03-31T03:56:27;10.20;93.20
48579;DHT22;34357;51.948;6.132;2023-03-31T03:58:53;10.20;93.20
48579;DHT22;34357;51.948;6.132;2023-03-31T04:01:18;10.20;93.30
48579;DHT22;34357;51.948;6.132;2023-03-31T04:03:45;10.20;93.30
48579;DHT22;34357;51.948;6.132;2023-03-31T04:06:11;10.20;93.30
48579;DHT22;34357;51.948;6.132;2023-03-31T04:08:36;10.20;93.40
48579;DHT22;34357;51.948;6.132;2023-03-31T04:11:02;10.20;93.40
48579;DHT22;34357;51.948;6.132;2023-03-31T04:13:28;10.20;93.50
48579;DHT22;34357;51.948;6.132;2023-03-31T04:15:54;10.20;93.50
48579;DHT22;34357;51.948;6.132;2023-03-31T04:18:19;10.20;93.50
48579;DHT22;34357;51.948;6.132;2023-03-31T04:20:52;10.20;93.60
48579;DHT22;34357;51.948;6.132;2023-03-31T04:23:35;10.20;93.60
48579;DHT22;34357;51.948;6.132;2023-03-31T04:26:15;10.20;93.60
48579;DHT22;34357;51.948;6.132;2023-03-31T04:28:42;10.20;93.60
48579;DHT22;34357;51.948;6.132;2023-03-31T04:31:13;10.20;93.60
48579;DHT22;34357;51.948;6.132;2023-03-31T04:33:52;10.10;93.70
48579;DHT22;34357;51.948;6.132;2023-03-31T04:36:18;10.10;93.70
48579;DHT22;34357;51.948;6.132;2023-03-31T04:38:48;10.20;93.60
48579;DHT22;34357;51.948;6.132;2023-03-31T04:41:20;10.20;93.70
48579;DHT22;34357;51.948;6.132;2023-03-31T04:43:46;10.10;93.60
48579;DHT22;34357;51.948;6.132;2023-03-31T04:46:12;10.10;93.60
48579;DHT22;34357;51.948;6.132;2023-03-31T04:48:38;10.10;93.60
48579;DHT22;34357;51.948;6.132;2023-03-31T04:51:04;10.10;93.60
48579;DHT22;34357;51.948;6.132;2023-03-31T04:53:30;10.10;93.70
48579;DHT22;34357;51.948;6.132;2023-03-31T04:55:56;10.10;93.70
48579;DHT22;34357;51.948;6.132;2023-03-31T04:58:22;10.10;93.70
48579;DHT22;34357;51.948;6.132;2023-03-31T05:00:48;10.10;93.70
48579;DHT22;34357;51.948;6.132;2023-03-31T05:03:14;10.10;93.70
48579;DHT22;34357;51.948;6.132;2023-03-31T05:05:40;10.10;93.70
48579;DHT22;34357;51.948;6.132;2023-03-31T05:08:06;10.00;93.70
48579;DHT22;34357;51.948;6.132;2023-03-31T05:10:32;10.10;93.70
48579;DHT22;34357;51.948;6.132;2023-03-31T05:12:58;10.00;93.70
48579;DHT22;34357;51.948;6.132;2023-03-31T05:15:23;10.10;93.80
48579;DHT22;34357;51.948;6.132;2023-03-31T05:17:50;10.00;93.80
48579;DHT22;34357;51.948;6.132;2023-03-31T05:20:17;10.00;93.80
48579;DHT22;34357;51.948;6.132;2023-03-31T05:22:44;10.00;93.80
48579;DHT22;34357;51.948;6.132;2023-03-31T05:25:11;10.00;93.80
48579;DHT22;34357;51.948;6.132;2023-03-31T05:27:44;10.00;93.90
48579;DHT22;34357;51.948;6.132;2023-03-31T05:30:12;10.00;93.90
48579;DHT22;34357;51.948;6.132;2023-03-31T05:32:38;10.00;93.90
48579;DHT22;34357;51.948;6.132;2023-03-31T05:35:04;10.00;94.00
48579;DHT22;34357;51.948;6.132;2023-03-31T05:37:30;10.10;93.70
48579;DHT22;34357;51.948;6.132;2023-03-31T05:39:56;10.20;93.30
48579;DHT22;34357;51.948;6.132;2023-03-31T05:42:22;10.20;93.30
48579;DHT22;34357;51.948;6.132;2023-03-31T05:44:47;10.10;93.40
48579;DHT22;34357;51.948;6.132;2023-03-31T05:47:14;10.10;93.50
48579;DHT22;34357;51.948;6.132;2023-03-31T05:49:40;10.10;93.60
48579;DHT22;34357;51.948;6.132;2023-03-31T05:52:08;10.10;93.70
48579;DHT22;34357;51.948;6.132;2023-03-31T05:54:35;10.10;93.80
48579;DHT22;34357;51.948;6.132;2023-03-31T05:57:01;10.10;93.80
48579;DHT22;34357;51.948;6.132;2023-03-31T05:59:27;10.00;93.80
48579;DHT22;34357;51.948;6.132;2023-03-31T06:01:53;10.10;93.80
48579;DHT22;34357;51.948;6.132;2023-03-31T06:04:18;10.10;93.80
48579;DHT22;34357;51.948;6.132;2023-03-31T06:06:44;10.10;93.80
48579;DHT22;34357;51.948;6.132;2023-03-31T06:09:10;10.20;93.70
48579;DHT22;34357;51.948;6.132;2023-03-31T06:11:39;10.20;93.70
48579;DHT22;34357;51.948;6.132;2023-03-31T06:14:05;10.20;93.60
48579;DHT22;34357;51.948;6.132;2023-03-31T06:16:30;10.20;93.50
48579;DHT22;34357;51.948;6.132;2023-03-31T06:18:56;10.20;93.50
48579;DHT22;34357;51.948;6.132;2023-03-31T06:21:22;10.20;93.40
48579;DHT22;34357;51.948;6.132;2023-03-31T06:23:48;10.20;93.30
48579;DHT22;34357;51.948;6.132;2023-03-31T06:26:16;10.30;93.30
48579;DHT22;34357;51.948;6.132;2023-03-31T06:28:43;10.30;93.20
48579;DHT22;34357;51.948;6.132;2023-03-31T06:31:14;10.30;93.10
48579;DHT22;34357;51.948;6.132;2023-03-31T06:33:41;10.30;92.90
48579;DHT22;34357;51.948;6.132;2023-03-31T06:36:08;10.40;92.90
48579;DHT22;34357;51.948;6.132;2023-03-31T06:38:34;10.40;92.80
48579;DHT22;34357;51.948;6.132;2023-03-31T06:41:01;10.40;92.50
48579;DHT22;34357;51.948;6.132;2023-03-31T06:43:27;10.50;92.40
48579;DHT22;34357;51.948;6.132;2023-03-31T06:45:53;10.60;92.20
48579;DHT22;34357;51.948;6.132;2023-03-31T06:48:20;10.60;91.90
48579;DHT22;34357;51.948;6.132;2023-03-31T06:50:46;10.60;91.60
48579;DHT22;34357;51.948;6.132;2023-03-31T06:53:12;10.60;91.10
48579;DHT22;34357;51.948;6.132;2023-03-31T06:55:38;10.60;91.20
48579;DHT22;34357;51.948;6.132;2023-03-31T06:58:04;10.60;91.10
48579;DHT22;34357;51.948;6.132;2023-03-31T07:00:31;10.50;91.20
48579;DHT22;34357;51.948;6.132;2023-03-31T07:02:57;10.50;91.40
48579;DHT22;34357;51.948;6.132;2023-03-31T07:05:23;10.60;91.50
48579;DHT22;34357;51.948;6.132;2023-03-31T07:07:54;10.60;91.70
48579;DHT22;34357;51.948;6.132;2023-03-31T07:10:20;10.60;91.70
48579;DHT22;34357;51.948;6.132;2023-03-31T07:12:46;10.60;91.90
48579;DHT22;34357;51.948;6.132;2023-03-31T07:15:12;10.50;92.00
48579;DHT22;34357;51.948;6.132;2023-03-31T07:17:37;10.40;92.10
48579;DHT22;34357;51.948;6.132;2023-03-31T07:20:10;10.40;92.20
48579;DHT22;34357;51.948;6.132;2023-03-31T07:22:38;10.40;92.30
48579;DHT22;34357;51.948;6.132;2023-03-31T07:25:06;10.40;92.40
48579;DHT22;34357;51.948;6.132;2023-03-31T07:27:32;10.40;92.50
48579;DHT22;34357;51.948;6.132;2023-03-31T07:29:58;10.40;92.50
48579;DHT22;34357;51.948;6.132;2023-03-31T07:32:23;10.40;92.60
48579;DHT22;34357;51.948;6.132;2023-03-31T07:34:49;10.40;92.70
48579;DHT22;34357;51.948;6.132;2023-03-31T07:37:15;10.40;92.60
48579;DHT22;34357;51.948;6.132;2023-03-31T07:39:41;10.40;92.70
48579;DHT22;34357;51.948;6.132;2023-03-31T07:42:07;10.40;92.80
48579;DHT22;34357;51.948;6.132;2023-03-31T07:44:34;10.30;92.80
48579;DHT22;34357;51.948;6.132;2023-03-31T07:47:00;10.30;92.90
48579;DHT22;34357;51.948;6.132;2023-03-31T07:49:34;10.30;93.00
48579;DHT22;34357;51.948;6.132;2023-03-31T07:52:00;10.20;92.90
48579;DHT22;34357;51.948;6.132;2023-03-31T07:54:26;10.20;93.00
48579;DHT22;34357;51.948;6.132;2023-03-31T07:56:52;10.20;93.10
48579;DHT22;34357;51.948;6.132;2023-03-31T07:59:18;10.20;93.20
48579;DHT22;34357;51.948;6.132;2023-03-31T08:01:44;10.20;93.10
48579;DHT22;34357;51.948;6.132;2023-03-31T08:04:13;10.20;93.10
48579;DHT22;34357;51.948;6.132;2023-03-31T08:06:39;10.20;93.10
48579;DHT22;34357;51.948;6.132;2023-03-31T08:09:05;10.20;93.00
48579;DHT22;34357;51.948;6.132;2023-03-31T08:11:33;10.10;93.10
48579;DHT22;34357;51.948;6.132;2023-03-31T08:14:00;10.10;93.10
48579;DHT22;34357;51.948;6.132;2023-03-31T08:16:26;10.10;93.10
48579;DHT22;34357;51.948;6.132;2023-03-31T08:18:51;10.20;93.10
48579;DHT22;34357;51.948;6.132;2023-03-31T08:21:17;10.20;93.10
48579;DHT22;34357;51.948;6.132;2023-03-31T08:23:43;10.20;93.10
48579;DHT22;34357;51.948;6.132;2023-03-31T08:26:11;10.40;93.10
48579;DHT22;34357;51.948;6.132;2023-03-31T08:28:37;10.40;93.10
48579;DHT22;34357;51.948;6.132;2023-03-31T08:31:07;10.40;92.90
48579;DHT22;34357;51.948;6.132;2023-03-31T08:33:33;10.60;92.70
48579;DHT22;34357;51.948;6.132;2023-03-31T08:36:03;10.70;92.60
48579;DHT22;34357;51.948;6.132;2023-03-31T08:38:29;10.70;92.40
48579;DHT22;34357;51.948;6.132;2023-03-31T08:40:59;10.80;92.40
48579;DHT22;34357;51.948;6.132;2023-03-31T08:43:31;10.90;92.40
48579;DHT22;34357;51.948;6.132;2023-03-31T08:45:58;11.00;92.40
48579;DHT22;34357;51.948;6.132;2023-03-31T08:50:58;11.20;91.80
48579;DHT22;34357;51.948;6.132;2023-03-31T08:53:33;11.40;91.30
48579;DHT22;34357;51.948;6.132;2023-03-31T08:56:00;11.40;91.20
48579;DHT22;34357;51.948;6.132;2023-03-31T08:58:40;11.60;90.80
48579;DHT22;34357;51.948;6.132;2023-03-31T09:06:48;11.80;90.20
48579;DHT22;34357;51.948;6.132;2023-03-31T09:12:01;12.10;89.20
48579;DHT22;34357;51.948;6.132;2023-03-31T09:17:28;12.20;89.10
48579;DHT22;34357;51.948;6.132;2023-03-31T09:19:59;12.20;89.20
48579;DHT22;34357;51.948;6.132;2023-03-31T09:22:31;12.10;88.70
48579;DHT22;34357;51.948;6.132;2023-03-31T09:25:21;12.10;88.60
48579;DHT22;34357;51.948;6.132;2023-03-31T09:27:49;12.20;88.90
48579;DHT22;34357;51.948;6.132;2023-03-31T09:30:20;12.10;89.00
48579;DHT22;34357;51.948;6.132;2023-03-31T09:32:49;12.10;89.20
48579;DHT22;34357;51.948;6.132;2023-03-31T09:35:18;12.10;89.20
48579;DHT22;34357;51.948;6.132;2023-03-31T09:37:47;12.00;89.30
48579;DHT22;34357;51.948;6.132;2023-03-31T09:40:18;11.90;89.70
48579;DHT22;34357;51.948;6.132;2023-03-31T09:42:46;11.90;89.80
48579;DHT22;34357;51.948;6.132;2023-03-31T09:45:15;12.10;90.30
48579;DHT22;34357;51.948;6.132;2023-03-31T09:47:43;12.20;90.20
48579;DHT22;34357;51.948;6.132;2023-03-31T09:50:11;12.20;90.00
48579;DHT22;34357;51.948;6.132;2023-03-31T09:52:40;12.30;89.80
48579;DHT22;34357;51.948;6.132;2023-03-31T09:55:27;12.40;89.70
48579;DHT22;34357;51.948;6.132;2023-03-31T09:57:56;12.50;89.70
48579;DHT22;34357;51.948;6.132;2023-03-31T10:00:24;12.50;89.40
48579;DHT22;34357;51.948;6.132;2023-03-31T10:02:52;12.70;89.60
48579;DHT22;34357;51.948;6.132;2023-03-31T10:05:36;12.70;88.70
48579;DHT22;34357;51.948;6.132;2023-03-31T10:11:11;12.90;88.20
48579;DHT22;34357;51.948;6.132;2023-03-31T10:14:10;12.80;87.50
48579;DHT22;34357;51.948;6.132;2023-03-31T10:16:55;12.90;87.30
48579;DHT22;34357;51.948;6.132;2023-03-31T10:19:25;12.90;86.80
48579;DHT22;34357;51.948;6.132;2023-03-31T10:22:17;13.10;86.10
48579;DHT22;34357;51.948;6.132;2023-03-31T10:24:51;13.30;86.40
48579;DHT22;34357;51.948;6.132;2023-03-31T10:27:26;13.20;84.80
48579;DHT22;34357;51.948;6.132;2023-03-31T10:29:54;13.10;84.90
48579;DHT22;34357;51.948;6.132;2023-03-31T10:32:31;13.10;84.80
48579;DHT22;34357;51.948;6.132;2023-03-31T10:35:07;13.10;84.30
48579;DHT22;34357;51.948;6.132;2023-03-31T10:37:34;12.90;84.10
48579;DHT22;34357;51.948;6.132;2023-03-31T10:40:17;12.80;85.00
48579;DHT22;34357;51.948;6.132;2023-03-31T10:42:45;12.80;84.70
48579;DHT22;34357;51.948;6.132;2023-03-31T10:45:16;12.80;83.60
48579;DHT22;34357;51.948;6.132;2023-03-31T10:47:49;12.80;83.50
48579;DHT22;34357;51.948;6.132;2023-03-31T10:50:17;12.80;82.70
48579;DHT22;34357;51.948;6.132;2023-03-31T10:52:45;12.80;83.40
48579;DHT22;34357;51.948;6.132;2023-03-31T10:55:18;12.90;82.80
48579;DHT22;34357;51.948;6.132;2023-03-31T11:00:31;13.00;82.00
48579;DHT22;34357;51.948;6.132;2023-03-31T11:03:13;13.10;82.10
48579;DHT22;34357;51.948;6.132;2023-03-31T11:14:11;13.40;79.80
48579;DHT22;34357;51.948;6.132;2023-03-31T11:17:00;13.50;81.00
48579;DHT22;34357;51.948;6.132;2023-03-31T11:19:49;13.70;80.00
48579;DHT22;34357;51.948;6.132;2023-03-31T11:22:30;13.80;78.30
48579;DHT22;34357;51.948;6.132;2023-03-31T11:25:29;13.90;77.20
48579;DHT22;34357;51.948;6.132;2023-03-31T11:31:02;13.90;77.80
48579;DHT22;34357;51.948;6.132;2023-03-31T11:41:18;13.90;77.90
48579;DHT22;34357;51.948;6.132;2023-03-31T11:44:03;14.00;77.70
48579;DHT22;34357;51.948;6.132;2023-03-31T11:46:53;13.80;77.30
48579;DHT22;34357;51.948;6.132;2023-03-31T11:49:26;13.80;77.20
48579;DHT22;34357;51.948;6.132;2023-03-31T11:52:16;14.00;77.20
48579;DHT22;34357;51.948;6.132;2023-03-31T11:55:03;14.00;76.20
48579;DHT22;34357;51.948;6.132;2023-03-31T11:57:37;14.20;76.10
48579;DHT22;34357;51.948;6.132;2023-03-31T12:02:50;14.30;75.80
48579;DHT22;34357;51.948;6.132;2023-03-31T12:05:19;14.30;75.50
48579;DHT22;34357;51.948;6.132;2023-03-31T12:08:06;14.30;75.50
48579;DHT22;34357;51.948;6.132;2023-03-31T12:10:34;14.20;74.60
48579;DHT22;34357;51.948;6.132;2023-03-31T12:13:49;13.90;76.30
48579;DHT22;34357;51.948;6.132;2023-03-31T12:18:28;14.30;76.60
48579;DHT22;34357;51.948;6.132;2023-03-31T12:20:58;14.10;75.50
48579;DHT22;34357;51.948;6.132;2023-03-31T12:23:28;14.30;75.90
48579;DHT22;34357;51.948;6.132;2023-03-31T12:28:38;14.50;74.80
48579;DHT22;34357;51.948;6.132;2023-03-31T12:31:08;14.50;75.40
48579;DHT22;34357;51.948;6.132;2023-03-31T12:33:48;14.50;74.50
48579;DHT22;34357;51.948;6.132;2023-03-31T12:52:54;14.10;76.60
48579;DHT22;34357;51.948;6.132;2023-03-31T13:06:10;14.00;76.80
48579;DHT22;34357;51.948;6.132;2023-03-31T13:08:56;14.10;78.90
48579;DHT22;34357;51.948;6.132;2023-03-31T13:14:22;14.10;78.70
48579;DHT22;34357;51.948;6.132;2023-03-31T13:16:51;14.00;79.10
48579;DHT22;34357;51.948;6.132;2023-03-31T13:19:30;13.90;79.40
48579;DHT22;34357;51.948;6.132;2023-03-31T13:21:58;13.80;79.30
48579;DHT22;34357;51.948;6.132;2023-03-31T13:24:26;13.70;78.30
48579;DHT22;34357;51.948;6.132;2023-03-31T13:26:53;13.60;78.40
48579;DHT22;34357;51.948;6.132;2023-03-31T13:29:37;13.60;79.10
48579;DHT22;34357;51.948;6.132;2023-03-31T13:32:15;13.60;78.60
48579;DHT22;34357;51.948;6.132;2023-03-31T13:35:01;13.70;79.20
48579;DHT22;34357;51.948;6.132;2023-03-31T13:37:56;13.80;77.70
48579;DHT22;34357;51.948;6.132;2023-03-31T13:40:52;13.80;76.80
48579;DHT22;34357;51.948;6.132;2023-03-31T13:43:53;13.90;76.60
48579;DHT22;34357;51.948;6.132;2023-03-31T13:57:26;13.70;75.30
48579;DHT22;34357;51.948;6.132;2023-03-31T14:05:29;13.50;78.20
48579;DHT22;34357;51.948;6.132;2023-03-31T14:08:07;13.40;79.30
48579;DHT22;34357;51.948;6.132;2023-03-31T14:10:38;13.20;81.40
48579;DHT22;34357;51.948;6.132;2023-03-31T14:13:09;12.90;82.50
48579;DHT22;34357;51.948;6.132;2023-03-31T14:15:54;12.40;84.00
48579;DHT22;34357;51.948;6.132;2023-03-31T14:18:24;12.20;85.10
48579;DHT22;34357;51.948;6.132;2023-03-31T14:20:54;12.20;86.50
48579;DHT22;34357;51.948;6.132;2023-03-31T14:23:43;12.30;86.80
48579;DHT22;34357;51.948;6.132;2023-03-31T14:29:32;12.40;87.30
48579;DHT22;34357;51.948;6.132;2023-03-31T14:37:26;12.00;88.00
48579;DHT22;34357;51.948;6.132;2023-03-31T14:39:54;12.00;87.50
48579;DHT22;34357;51.948;6.132;2023-03-31T14:42:24;12.30;87.10
48579;DHT22;34357;51.948;6.132;2023-03-31T14:45:01;12.40;85.30
48579;DHT22;34357;51.948;6.132;2023-03-31T14:47:27;12.50;85.80
48579;DHT22;34357;51.948;6.132;2023-03-31T14:50:22;12.60;84.00
48579;DHT22;34357;51.948;6.132;2023-03-31T14:52:50;12.60;83.30
48579;DHT22;34357;51.948;6.132;2023-03-31T14:55:20;12.50;82.20
48579;DHT22;34357;51.948;6.132;2023-03-31T14:57:49;12.40;83.50
48579;DHT22;34357;51.948;6.132;2023-03-31T15:00:27;12.40;84.30
48579;DHT22;34357;51.948;6.132;2023-03-31T15:02:54;12.40;84.60
48579;DHT22;34357;51.948;6.132;2023-03-31T15:07:57;12.30;85.20
48579;DHT22;34357;51.948;6.132;2023-03-31T15:10:24;12.20;86.10
48579;DHT22;34357;51.948;6.132;2023-03-31T15:12:54;12.00;85.60
48579;DHT22;34357;51.948;6.132;2023-03-31T15:15:20;12.00;86.70
48579;DHT22;34357;51.948;6.132;2023-03-31T15:17:47;11.90;86.40
48579;DHT22;34357;51.948;6.132;2023-03-31T15:20:45;11.80;85.00
48579;DHT22;34357;51.948;6.132;2023-03-31T15:23:25;11.80;85.90
48579;DHT22;34357;51.948;6.132;2023-03-31T15:26:02;11.70;86.30
48579;DHT22;34357;51.948;6.132;2023-03-31T15:28:38;11.80;86.70
48579;DHT22;34357;51.948;6.132;2023-03-31T15:31:04;11.80;86.90
48579;DHT22;34357;51.948;6.132;2023-03-31T15:33:32;11.90;86.80
48579;DHT22;34357;51.948;6.132;2023-03-31T15:36:01;11.90;86.70
48579;DHT22;34357;51.948;6.132;2023-03-31T15:38:28;12.00;86.40
48579;DHT22;34357;51.948;6.132;2023-03-31T15:40:57;12.00;86.10
48579;DHT22;34357;51.948;6.132;2023-03-31T15:43:31;12.00;85.60
48579;DHT22;34357;51.948;6.132;2023-03-31T15:46:25;12.00;86.00
48579;DHT22;34357;51.948;6.132;2023-03-31T15:49:21;12.00;85.30
48579;DHT22;34357;51.948;6.132;2023-03-31T15:51:49;11.90;85.00
48579;DHT22;34357;51.948;6.132;2023-03-31T15:54:35;11.90;85.60
48579;DHT22;34357;51.948;6.132;2023-03-31T15:57:03;11.90;84.90
48579;DHT22;34357;51.948;6.132;2023-03-31T15:59:31;11.90;84.70
48579;DHT22;34357;51.948;6.132;2023-03-31T16:02:11;11.80;84.30
48579;DHT22;34357;51.948;6.132;2023-03-31T16:04:38;11.80;84.80
48579;DHT22;34357;51.948;6.132;2023-03-31T16:07:07;11.70;85.10
48579;DHT22;34357;51.948;6.132;2023-03-31T16:12:24;11.60;85.70
48579;DHT22;34357;51.948;6.132;2023-03-31T16:17:31;11.60;86.50
48579;DHT22;34357;51.948;6.132;2023-03-31T16:20:06;11.50;86.10
48579;DHT22;34357;51.948;6.132;2023-03-31T16:22:40;11.50;86.70
48579;DHT22;34357;51.948;6.132;2023-03-31T16:25:19;11.60;85.80
48579;DHT22;34357;51.948;6.132;2023-03-31T16:27:48;11.60;86.00
48579;DHT22;34357;51.948;6.132;2023-03-31T16:30:20;11.50;85.00
48579;DHT22;34357;51.948;6.132;2023-03-31T16:33:07;11.50;85.00
48579;DHT22;34357;51.948;6.132;2023-03-31T16:35:35;11.60;84.80
48579;DHT22;34357;51.948;6.132;2023-03-31T16:38:05;11.50;84.80
48579;DHT22;34357;51.948;6.132;2023-03-31T16:40:37;11.50;85.30
48579;DHT22;34357;51.948;6.132;2023-03-31T16:43:15;11.40;84.90
48579;DHT22;34357;51.948;6.132;2023-03-31T16:45:49;11.40;85.60
48579;DHT22;34357;51.948;6.132;2023-03-31T16:48:16;11.40;85.90
48579;DHT22;34357;51.948;6.132;2023-03-31T16:50:51;11.50;86.30
48579;DHT22;34357;51.948;6.132;2023-03-31T16:53:22;11.40;86.30
48579;DHT22;34357;51.948;6.132;2023-03-31T16:55:49;11.30;86.30
48579;DHT22;34357;51.948;6.132;2023-03-31T16:58:15;11.20;86.80
48579;DHT22;34357;51.948;6.132;2023-03-31T17:00:41;11.10;87.20
48579;DHT22;34357;51.948;6.132;2023-03-31T17:03:08;11.10;87.30
48579;DHT22;34357;51.948;6.132;2023-03-31T17:05:42;11.10;87.50
48579;DHT22;34357;51.948;6.132;2023-03-31T17:08:09;11.00;87.90
48579;DHT22;34357;51.948;6.132;2023-03-31T17:10:36;11.00;88.30
48579;DHT22;34357;51.948;6.132;2023-03-31T17:13:06;11.00;88.20
48579;DHT22;34357;51.948;6.132;2023-03-31T17:15:32;11.00;88.50
48579;DHT22;34357;51.948;6.132;2023-03-31T17:18:01;10.90;88.50
48579;DHT22;34357;51.948;6.132;2023-03-31T17:20:28;10.90;88.90
48579;DHT22;34357;51.948;6.132;2023-03-31T17:22:54;10.80;88.80
48579;DHT22;34357;51.948;6.132;2023-03-31T17:25:20;10.70;89.20
48579;DHT22;34357;51.948;6.132;2023-03-31T17:27:46;10.70;89.50
48579;DHT22;34357;51.948;6.132;2023-03-31T17:30:12;10.70;89.60
48579;DHT22;34357;51.948;6.132;2023-03-31T17:32:38;10.60;89.90
48579;DHT22;34357;51.948;6.132;2023-03-31T17:35:04;10.60;90.20
48579;DHT22;34357;51.948;6.132;2023-03-31T17:37:31;10.60;90.40
48579;DHT22;34357;51.948;6.132;2023-03-31T17:39:57;10.60;90.70
48579;DHT22;34357;51.948;6.132;2023-03-31T17:42:23;10.50;90.90
48579;DHT22;34357;51.948;6.132;2023-03-31T17:44:49;10.50;91.00
48579;DHT22;34357;51.948;6.132;2023-03-31T17:47:16;10.50;91.20
48579;DHT22;34357;51.948;6.132;2023-03-31T17:49:43;10.50;91.20
48579;DHT22;34357;51.948;6.132;2023-03-31T17:52:09;10.50;91.30
48579;DHT22;34357;51.948;6.132;2023-03-31T17:54:35;10.50;91.50
48579;DHT22;34357;51.948;6.132;2023-03-31T17:57:01;10.50;91.40
48579;DHT22;34357;51.948;6.132;2023-03-31T17:59:28;10.50;91.50
48579;DHT22;34357;51.948;6.132;2023-03-31T18:01:53;10.40;91.60
48579;DHT22;34357;51.948;6.132;2023-03-31T18:04:20;10.40;91.70
48579;DHT22;34357;51.948;6.132;2023-03-31T18:06:46;10.40;91.70
48579;DHT22;34357;51.948;6.132;2023-03-31T18:09:13;10.40;91.80
48579;DHT22;34357;51.948;6.132;2023-03-31T18:11:39;10.40;91.80
48579;DHT22;34357;51.948;6.132;2023-03-31T18:14:05;10.40;91.80
48579;DHT22;34357;51.948;6.132;2023-03-31T18:16:32;10.40;91.90
48579;DHT22;34357;51.948;6.132;2023-03-31T18:18:59;10.40;92.00
48579;DHT22;34357;51.948;6.132;2023-03-31T18:21:26;10.30;92.00
48579;DHT22;34357;51.948;6.132;2023-03-31T18:23:52;10.30;92.20
48579;DHT22;34357;51.948;6.132;2023-03-31T18:26:20;10.20;92.30